createdAt,value
2017-02-17T00:00:16.996Z,0
2017-02-17T00:01:17.122Z,0
2017-02-17T00:02:17.355Z,0
2017-02-17T00:03:18.232Z,0
2017-02-17T00:04:18.934Z,0
2017-02-17T00:05:17.459Z,0
2017-02-17T00:06:18.404Z,0
2017-02-17T00:07:17.313Z,0
2017-02-17T00:08:17.965Z,0
2017-02-17T00:09:17.375Z,0
2017-02-17T00:10:19.142Z,0
2017-02-17T00:11:17.431Z,0
2017-02-17T00:12:18.277Z,0
2017-02-17T00:13:18.603Z,0
2017-02-17T00:14:17.881Z,0
2017-02-17T00:15:19.314Z,0
2017-02-17T00:16:18.870Z,0
2017-02-17T00:17:18.201Z,0
2017-02-17T00:18:18.245Z,0
2017-02-17T00:19:18.027Z,0
2017-02-17T00:20:18.067Z,0
2017-02-17T00:21:18.316Z,0
2017-02-17T00:22:18.110Z,0
2017-02-17T00:23:18.789Z,0
2017-02-17T00:24:19.050Z,0
2017-02-17T00:25:19.672Z,0
2017-02-17T00:26:18.205Z,0
2017-02-17T00:27:18.284Z,0
2017-02-17T00:28:19.017Z,0
2017-02-17T00:29:17.891Z,0
2017-02-17T00:30:17.595Z,0
2017-02-17T00:31:18.720Z,0
2017-02-17T00:32:18.828Z,0
2017-02-17T00:33:19.151Z,0
2017-02-17T00:34:18.031Z,0
2017-02-17T00:35:18.458Z,0
2017-02-17T00:36:19.359Z,0
2017-02-17T00:37:17.728Z,0
2017-02-17T00:38:18.380Z,0
2017-02-17T00:39:18.942Z,0
2017-02-17T00:40:18.207Z,0
2017-02-17T00:41:18.789Z,0
2017-02-17T00:42:18.167Z,0
2017-02-17T00:43:18.746Z,0
2017-02-17T00:44:18.607Z,0
2017-02-17T00:45:19.165Z,0
2017-02-17T00:46:19.622Z,0
2017-02-17T00:47:19.293Z,0
2017-02-17T00:48:33.506Z,0
2017-02-17T00:49:19.509Z,0
2017-02-17T00:50:18.395Z,0
2017-02-17T00:51:19.191Z,0
2017-02-17T00:52:19.339Z,0
2017-02-17T00:53:19.355Z,0
2017-02-17T00:54:18.903Z,0
2017-02-17T00:55:19.500Z,0
2017-02-17T00:56:18.648Z,0
2017-02-17T00:57:18.501Z,0
2017-02-17T00:58:19.330Z,0
2017-02-17T00:59:19.354Z,0
2017-02-17T01:00:18.373Z,0
2017-02-17T01:01:19.162Z,0
2017-02-17T01:02:19.668Z,0
2017-02-17T01:03:18.926Z,0
2017-02-17T01:04:19.501Z,0
2017-02-17T01:05:18.891Z,0
2017-02-17T01:06:18.907Z,0
2017-02-17T01:07:18.935Z,0
2017-02-17T01:08:18.572Z,0
2017-02-17T01:09:19.685Z,0
2017-02-17T01:10:19.437Z,0
2017-02-17T01:11:19.451Z,0
2017-02-17T01:12:19.515Z,0
2017-02-17T01:13:20.044Z,0
2017-02-17T01:14:20.734Z,0
2017-02-17T01:15:18.785Z,0
2017-02-17T01:16:18.503Z,0
2017-02-17T01:17:19.968Z,0
2017-02-17T01:18:18.875Z,0
2017-02-17T01:19:19.927Z,0
2017-02-17T01:20:19.708Z,0
2017-02-17T01:21:20.445Z,0
2017-02-17T01:22:20.440Z,0
2017-02-17T01:23:19.783Z,0
2017-02-17T01:24:20.310Z,0
2017-02-17T01:25:20.006Z,0
2017-02-17T01:26:19.061Z,0
2017-02-17T01:27:19.486Z,0
2017-02-17T01:28:20.313Z,0
2017-02-17T01:29:20.168Z,0
2017-02-17T01:30:20.596Z,0
2017-02-17T01:31:19.765Z,0
2017-02-17T01:32:20.010Z,0
2017-02-17T01:33:20.574Z,0
2017-02-17T01:34:20.632Z,0
2017-02-17T01:35:19.885Z,0
2017-02-17T01:36:19.761Z,0
2017-02-17T01:37:19.765Z,0
2017-02-17T01:38:20.213Z,0
2017-02-17T01:39:20.701Z,0
2017-02-17T01:40:21.040Z,0
2017-02-17T01:41:20.440Z,0
2017-02-17T01:42:21.250Z,0
2017-02-17T01:43:20.910Z,0
2017-02-17T01:44:21.102Z,0
2017-02-17T01:45:20.820Z,0
2017-02-17T01:46:20.608Z,0
2017-02-17T01:47:20.086Z,0
2017-02-17T01:48:21.119Z,0
2017-02-17T01:49:21.246Z,0
2017-02-17T01:50:20.528Z,0
2017-02-17T01:51:20.934Z,0
2017-02-17T01:52:20.629Z,0
2017-02-17T01:53:20.783Z,0
2017-02-17T01:54:21.651Z,0
2017-02-17T01:55:21.964Z,0
2017-02-17T01:56:20.682Z,0
2017-02-17T01:57:20.697Z,0
2017-02-17T01:58:21.312Z,0
2017-02-17T01:59:21.021Z,0
2017-02-17T02:00:20.434Z,0
2017-02-17T02:01:21.510Z,0
2017-02-17T02:02:21.010Z,0
2017-02-17T02:03:21.743Z,0
2017-02-17T02:04:21.560Z,0
2017-02-17T02:05:21.112Z,0
2017-02-17T02:06:21.166Z,0
2017-02-17T02:07:20.988Z,0
2017-02-17T02:08:21.389Z,0
2017-02-17T02:09:21.668Z,0
2017-02-17T02:10:22.254Z,0
2017-02-17T02:11:22.088Z,0
2017-02-17T02:12:21.103Z,0
2017-02-17T02:13:21.162Z,0
2017-02-17T02:14:20.020Z,0
2017-02-17T02:15:21.418Z,0
2017-02-17T02:16:21.855Z,0
2017-02-17T02:17:22.587Z,0
2017-02-17T02:18:21.672Z,0
2017-02-17T02:19:21.300Z,0
2017-02-17T02:20:20.803Z,0
2017-02-17T02:21:21.865Z,0
2017-02-17T02:22:21.749Z,0
2017-02-17T02:23:21.800Z,0
2017-02-17T02:24:21.846Z,0
2017-02-17T02:25:21.725Z,0
2017-02-17T02:26:21.642Z,0
2017-02-17T02:27:22.079Z,0
2017-02-17T02:28:22.257Z,0
2017-02-17T02:29:22.339Z,0
2017-02-17T02:30:22.213Z,0
2017-02-17T02:31:21.935Z,0
2017-02-17T02:32:21.984Z,0
2017-02-17T02:33:20.958Z,0
2017-02-17T02:34:21.340Z,0
2017-02-17T02:35:23.375Z,0
2017-02-17T02:36:22.858Z,0
2017-02-17T02:37:20.599Z,0
2017-02-17T02:38:21.859Z,0
2017-02-17T02:39:21.849Z,0
2017-02-17T02:40:22.756Z,0
2017-02-17T02:41:23.214Z,0
2017-02-17T02:42:22.017Z,0
2017-02-17T02:43:21.987Z,0
2017-02-17T02:44:21.975Z,0
2017-02-17T02:45:22.892Z,0
2017-02-17T02:46:22.508Z,0
2017-02-17T02:47:22.562Z,0
2017-02-17T02:48:21.689Z,0
2017-02-17T02:49:22.535Z,0
2017-02-17T02:50:22.440Z,0
2017-02-17T02:51:23.245Z,0
2017-02-17T02:52:23.309Z,0
2017-02-17T02:53:23.366Z,0
2017-02-17T02:54:23.372Z,0
2017-02-17T02:55:22.823Z,0
2017-02-17T02:56:22.352Z,0
2017-02-17T02:57:23.907Z,0
2017-02-17T02:58:23.447Z,0
2017-02-17T02:59:22.386Z,0
2017-02-17T03:00:22.764Z,0
2017-02-17T03:01:22.460Z,0
2017-02-17T03:02:23.526Z,0
2017-02-17T03:03:23.732Z,0
2017-02-17T03:04:22.916Z,0
2017-02-17T03:05:23.995Z,0
2017-02-17T03:06:23.288Z,0
2017-02-17T03:07:23.008Z,0
2017-02-17T03:08:21.470Z,0
2017-02-17T03:09:22.277Z,0
2017-02-17T03:10:24.123Z,0
2017-02-17T03:11:24.406Z,0
2017-02-17T03:12:23.352Z,0
2017-02-17T03:13:22.362Z,0
2017-02-17T03:14:22.445Z,0
2017-02-17T03:15:24.042Z,0
2017-02-17T03:16:24.790Z,0
2017-02-17T03:17:24.566Z,0
2017-02-17T03:18:21.727Z,0
2017-02-17T03:19:22.558Z,0
2017-02-17T03:20:23.636Z,0
2017-02-17T03:21:23.556Z,0
2017-02-17T03:22:23.796Z,0
2017-02-17T03:23:22.839Z,0
2017-02-17T03:24:23.061Z,0
2017-02-17T03:25:23.750Z,0
2017-02-17T03:26:24.432Z,0
2017-02-17T03:27:24.827Z,0
2017-02-17T03:28:24.621Z,0
2017-02-17T03:29:23.200Z,0
2017-02-17T03:30:23.881Z,0
2017-02-17T03:31:23.687Z,0
2017-02-17T03:32:22.937Z,0
2017-02-17T03:33:23.690Z,0
2017-02-17T03:34:23.357Z,0
2017-02-17T03:35:23.942Z,0
2017-02-17T03:36:25.006Z,0
2017-02-17T03:37:22.986Z,0
2017-02-17T03:38:23.079Z,0
2017-02-17T03:39:23.472Z,0
2017-02-17T03:40:24.693Z,0
2017-02-17T03:41:24.208Z,0
2017-02-17T03:42:24.928Z,0
2017-02-17T03:43:22.402Z,0
2017-02-17T03:44:23.208Z,0
2017-02-17T03:45:24.514Z,0
2017-02-17T03:46:24.718Z,0
2017-02-17T03:47:25.181Z,0
2017-02-17T03:48:23.711Z,0
2017-02-17T03:49:23.735Z,0
2017-02-17T03:50:23.237Z,0
2017-02-17T03:51:24.930Z,0
2017-02-17T03:52:25.046Z,0
2017-02-17T03:53:23.933Z,0
2017-02-17T03:54:22.694Z,0
2017-02-17T03:55:24.405Z,0
2017-02-17T03:56:23.989Z,0
2017-02-17T03:57:24.381Z,0
2017-02-17T03:58:24.545Z,0
2017-02-17T03:59:23.875Z,0
2017-02-17T04:00:24.444Z,0
2017-02-17T04:01:25.145Z,0
2017-02-17T04:02:24.621Z,0
2017-02-17T04:03:25.644Z,0
2017-02-17T04:04:23.938Z,0
2017-02-17T04:05:24.403Z,0
2017-02-17T04:06:23.916Z,0
2017-02-17T04:07:24.162Z,0
2017-02-17T04:08:25.069Z,0
2017-02-17T04:09:24.807Z,0
2017-02-17T04:10:25.169Z,0
2017-02-17T04:11:25.084Z,0
2017-02-17T04:12:24.712Z,0
2017-02-17T04:13:23.204Z,0
2017-02-17T04:14:25.708Z,0
2017-02-17T04:15:23.304Z,0
2017-02-17T04:16:25.626Z,0
2017-02-17T04:17:25.359Z,0
2017-02-17T04:18:24.516Z,0
2017-02-17T04:19:24.167Z,0
2017-02-17T04:20:24.623Z,0
2017-02-17T04:21:25.270Z,0
2017-02-17T04:22:24.746Z,0
2017-02-17T04:23:24.713Z,0
2017-02-17T04:24:25.653Z,0
2017-02-17T04:25:25.546Z,0
2017-02-17T04:26:25.388Z,0
2017-02-17T04:27:24.370Z,0
2017-02-17T04:28:24.796Z,0
2017-02-17T04:29:25.053Z,0
2017-02-17T04:30:25.547Z,0
2017-02-17T04:31:25.962Z,0
2017-02-17T04:32:25.306Z,0
2017-02-17T04:33:24.947Z,0
2017-02-17T04:34:24.513Z,0
2017-02-17T04:35:25.540Z,0
2017-02-17T04:36:24.872Z,0
2017-02-17T04:37:24.227Z,0
2017-02-17T04:38:25.534Z,0
2017-02-17T04:39:25.419Z,0
2017-02-17T04:40:24.329Z,0
2017-02-17T04:41:25.389Z,0
2017-02-17T04:42:25.711Z,0
2017-02-17T04:43:25.594Z,0
2017-02-17T04:44:24.926Z,0
2017-02-17T04:45:25.248Z,0
2017-02-17T04:46:25.940Z,0
2017-02-17T04:47:25.980Z,0
2017-02-17T04:48:25.327Z,0
2017-02-17T04:49:24.968Z,0
2017-02-17T04:50:25.387Z,0
2017-02-17T04:51:25.877Z,0
2017-02-17T04:52:26.058Z,0
2017-02-17T04:53:25.079Z,0
2017-02-17T04:54:26.029Z,0
2017-02-17T04:55:25.327Z,0
2017-02-17T04:56:26.196Z,0
2017-02-17T04:57:24.807Z,0
2017-02-17T04:58:24.828Z,0
2017-02-17T04:59:25.958Z,0
2017-02-17T05:00:26.504Z,0
2017-02-17T05:01:25.997Z,0
2017-02-17T05:02:25.305Z,0
2017-02-17T05:03:26.967Z,0
2017-02-17T05:04:25.500Z,0
2017-02-17T05:05:26.168Z,0
2017-02-17T05:06:25.687Z,0
2017-02-17T05:07:26.306Z,0
2017-02-17T05:08:26.516Z,0
2017-02-17T05:09:26.209Z,0
2017-02-17T05:10:26.065Z,0
2017-02-17T05:11:26.220Z,0
2017-02-17T05:12:26.757Z,0
2017-02-17T05:13:26.494Z,0
2017-02-17T05:14:26.455Z,0
2017-02-17T05:15:26.044Z,0
2017-02-17T05:16:25.940Z,0
2017-02-17T05:17:26.194Z,0
2017-02-17T05:18:25.758Z,0
2017-02-17T05:19:25.767Z,0
2017-02-17T05:20:25.386Z,0
2017-02-17T05:21:26.193Z,0
2017-02-17T05:22:27.625Z,0
2017-02-17T05:23:27.039Z,0
2017-02-17T05:24:26.324Z,0
2017-02-17T05:25:25.934Z,0
2017-02-17T05:26:26.843Z,0
2017-02-17T05:27:27.250Z,0
2017-02-17T05:28:27.539Z,0
2017-02-17T05:29:25.255Z,0
2017-02-17T05:30:26.082Z,0
2017-02-17T05:31:26.334Z,0
2017-02-17T05:32:27.589Z,0
2017-02-17T05:33:26.691Z,0
2017-02-17T05:34:27.264Z,0
2017-02-17T05:35:28.325Z,0
2017-02-17T05:36:27.536Z,0
2017-02-17T05:37:26.663Z,0
2017-02-17T05:38:26.307Z,0
2017-02-17T05:39:26.733Z,0
2017-02-17T05:40:26.548Z,0
2017-02-17T05:41:28.280Z,0
2017-02-17T05:42:27.059Z,0
2017-02-17T05:43:26.428Z,0
2017-02-17T05:44:26.839Z,0
2017-02-17T05:45:26.076Z,0
2017-02-17T05:46:27.921Z,0
2017-02-17T05:47:27.315Z,0
2017-02-17T05:48:27.152Z,0
2017-02-17T05:49:27.190Z,0
2017-02-17T05:50:27.623Z,0
2017-02-17T05:51:27.269Z,0
2017-02-17T05:52:25.866Z,0
2017-02-17T05:53:27.122Z,0
2017-02-17T05:54:27.157Z,0
2017-02-17T05:55:26.943Z,0
2017-02-17T05:56:26.645Z,0
2017-02-17T05:57:27.463Z,0
2017-02-17T05:58:27.333Z,0
2017-02-17T05:59:27.661Z,0
2017-02-17T06:00:27.302Z,0
2017-02-17T06:01:27.560Z,0
2017-02-17T06:02:41.300Z,0
2017-02-17T06:03:28.164Z,0
2017-02-17T06:04:28.086Z,0
2017-02-17T06:05:27.051Z,0
2017-02-17T06:06:27.722Z,0
2017-02-17T06:07:27.921Z,0
2017-02-17T06:08:27.938Z,0
2017-02-17T06:09:27.567Z,0
2017-02-17T06:10:28.072Z,0
2017-02-17T06:11:27.592Z,0
2017-02-17T06:12:27.991Z,0
2017-02-17T06:13:28.039Z,0
2017-02-17T06:14:28.430Z,0
2017-02-17T06:15:28.670Z,0
2017-02-17T06:16:28.359Z,0
2017-02-17T06:17:28.224Z,0
2017-02-17T06:18:27.398Z,0
2017-02-17T06:19:27.631Z,0
2017-02-17T06:20:27.884Z,0
2017-02-17T06:21:27.712Z,0
2017-02-17T06:22:28.120Z,0
2017-02-17T06:23:27.806Z,0
2017-02-17T06:24:27.155Z,0
2017-02-17T06:25:27.569Z,0
2017-02-17T06:26:27.883Z,0
2017-02-17T06:27:29.116Z,0
2017-02-17T06:28:28.672Z,0
2017-02-17T06:29:27.661Z,0
2017-02-17T06:30:28.124Z,0
2017-02-17T06:31:28.360Z,0
2017-02-17T06:32:29.946Z,0
2017-02-17T06:33:29.501Z,0
2017-02-17T06:34:28.900Z,0
2017-02-17T06:35:28.211Z,0
2017-02-17T06:36:28.144Z,0
2017-02-17T06:37:27.887Z,0
2017-02-17T06:38:29.977Z,0
2017-02-17T06:39:28.721Z,0
2017-02-17T06:40:27.979Z,0
2017-02-17T06:41:28.259Z,0
2017-02-17T06:42:28.003Z,0
2017-02-17T06:43:29.291Z,0
2017-02-17T06:44:29.723Z,0
2017-02-17T06:45:28.598Z,0
2017-02-17T06:46:28.777Z,0
2017-02-17T06:47:28.151Z,0
2017-02-17T06:48:28.953Z,0
2017-02-17T06:49:28.855Z,0
2017-02-17T06:50:29.761Z,0
2017-02-17T06:51:28.125Z,0
2017-02-17T06:52:28.721Z,0
2017-02-17T06:53:28.336Z,0
2017-02-17T06:54:29.173Z,0
2017-02-17T06:55:29.765Z,0
2017-02-17T06:56:29.398Z,0
2017-02-17T06:57:28.039Z,0
2017-02-17T06:58:28.831Z,0
2017-02-17T06:59:29.539Z,0
2017-02-17T07:00:29.938Z,0
2017-02-17T07:01:30.052Z,0
2017-02-17T07:02:28.966Z,0
2017-02-17T07:03:28.587Z,0
2017-02-17T07:04:28.227Z,0
2017-02-17T07:05:30.000Z,0
2017-02-17T07:06:29.714Z,0
2017-02-17T07:07:28.548Z,0
2017-02-17T07:08:29.127Z,0
2017-02-17T07:09:28.762Z,0
2017-02-17T07:10:30.149Z,0
2017-02-17T07:11:29.402Z,0
2017-02-17T07:12:31.095Z,0
2017-02-17T07:13:28.886Z,0
2017-02-17T07:14:28.910Z,0
2017-02-17T07:15:29.313Z,0
2017-02-17T07:16:30.568Z,0
2017-02-17T07:17:30.737Z,0
2017-02-17T07:18:29.401Z,0
2017-02-17T07:19:29.435Z,0
2017-02-17T07:20:29.847Z,0
2017-02-17T07:21:30.091Z,0
2017-02-17T07:22:30.580Z,0
2017-02-17T07:23:30.782Z,0
2017-02-17T07:24:29.183Z,0
2017-02-17T07:25:29.837Z,0
2017-02-17T07:26:30.356Z,0
2017-02-17T07:27:30.866Z,0
2017-02-17T07:28:30.775Z,0
2017-02-17T07:29:29.706Z,0
2017-02-17T07:30:29.380Z,0
2017-02-17T07:31:28.963Z,0
2017-02-17T07:32:31.209Z,0
2017-02-17T07:33:31.254Z,0
2017-02-17T07:34:30.647Z,0
2017-02-17T07:35:30.261Z,0
2017-02-17T07:36:30.306Z,0
2017-02-17T07:37:30.639Z,0
2017-02-17T07:38:30.843Z,0
2017-02-17T07:39:30.371Z,0
2017-02-17T07:40:29.613Z,0
2017-02-17T07:41:30.054Z,0
2017-02-17T07:42:30.099Z,0
2017-02-17T07:43:29.701Z,0
2017-02-17T07:44:29.713Z,0
2017-02-17T07:45:30.541Z,0
2017-02-17T07:46:30.867Z,0
2017-02-17T07:47:31.036Z,0
2017-02-17T07:48:30.754Z,0
2017-02-17T07:49:29.856Z,0
2017-02-17T07:50:29.481Z,5
2017-02-17T07:51:30.594Z,5
2017-02-17T07:52:31.315Z,0
2017-02-17T07:53:31.083Z,5
2017-02-17T07:54:30.779Z,5
2017-02-17T07:55:30.005Z,5
2017-02-17T07:56:30.057Z,5
2017-02-17T07:57:31.724Z,5
2017-02-17T07:58:32.134Z,5
2017-02-17T07:59:30.534Z,5
2017-02-17T08:00:30.995Z,5
2017-02-17T08:01:30.335Z,5
2017-02-17T08:02:32.261Z,5
2017-02-17T08:03:31.154Z,5
2017-02-17T08:04:30.699Z,5
2017-02-17T08:05:30.283Z,5
2017-02-17T08:06:30.319Z,5
2017-02-17T08:07:30.991Z,5
2017-02-17T08:08:32.004Z,5
2017-02-17T08:09:31.895Z,5
2017-02-17T08:10:31.200Z,5
2017-02-17T08:11:30.852Z,5
2017-02-17T08:12:31.510Z,5
2017-02-17T08:13:31.828Z,5
2017-02-17T08:14:31.918Z,5
2017-02-17T08:15:30.885Z,5
2017-02-17T08:16:30.983Z,5
2017-02-17T08:17:31.650Z,5
2017-02-17T08:18:30.237Z,5
2017-02-17T08:19:31.438Z,5
2017-02-17T08:20:31.589Z,5
2017-02-17T08:21:30.733Z,5
2017-02-17T08:22:31.326Z,5
2017-02-17T08:23:31.300Z,5
2017-02-17T08:24:30.021Z,5
2017-02-17T08:25:31.217Z,5
2017-02-17T08:26:31.746Z,5
2017-02-17T08:27:31.964Z,10
2017-02-17T08:28:31.204Z,10
2017-02-17T08:29:31.167Z,10
2017-02-17T08:30:30.967Z,10
2017-02-17T08:31:31.805Z,10
2017-02-17T08:32:32.694Z,15
2017-02-17T08:33:32.574Z,20
2017-02-17T08:34:32.638Z,20
2017-02-17T08:35:31.923Z,15
2017-02-17T08:36:31.521Z,30
2017-02-17T08:37:31.168Z,15
2017-02-17T08:38:32.815Z,30
2017-02-17T08:39:32.458Z,55
2017-02-17T08:40:30.839Z,30
2017-02-17T08:41:30.920Z,20
2017-02-17T08:42:31.708Z,55
2017-02-17T08:43:32.258Z,50
2017-02-17T08:44:32.274Z,20
2017-02-17T08:45:31.513Z,20
2017-02-17T08:46:31.478Z,15
2017-02-17T08:47:32.484Z,20
2017-02-17T08:48:32.536Z,35
2017-02-17T08:49:32.690Z,35
2017-02-17T08:50:31.890Z,55
2017-02-17T08:51:31.556Z,30
2017-02-17T08:52:31.984Z,30
2017-02-17T08:53:31.063Z,25
2017-02-17T08:54:32.292Z,30
2017-02-17T08:55:32.667Z,30
2017-02-17T08:56:32.364Z,35
2017-02-17T08:57:31.708Z,20
2017-02-17T08:58:32.383Z,25
2017-02-17T08:59:32.262Z,40
2017-02-17T09:00:33.048Z,25
2017-02-17T09:01:32.141Z,50
2017-02-17T09:02:31.839Z,50
2017-02-17T09:03:32.504Z,50
2017-02-17T09:04:32.285Z,50
2017-02-17T09:05:33.337Z,55
2017-02-17T09:06:33.443Z,45
2017-02-17T09:07:33.515Z,30
2017-02-17T09:08:33.042Z,25
2017-02-17T09:09:32.034Z,20
2017-02-17T09:10:32.942Z,20
2017-02-17T09:11:33.615Z,25
2017-02-17T09:12:32.780Z,25
2017-02-17T09:13:32.800Z,20
2017-02-17T09:14:32.996Z,55
2017-02-17T09:15:32.594Z,45
2017-02-17T09:16:32.953Z,20
2017-02-17T09:17:33.607Z,25
2017-02-17T09:18:34.249Z,35
2017-02-17T09:19:32.316Z,25
2017-02-17T09:20:32.706Z,55
2017-02-17T09:21:32.811Z,50
2017-02-17T09:22:34.000Z,50
2017-02-17T09:23:34.244Z,60
2017-02-17T09:24:32.434Z,55
2017-02-17T09:25:32.862Z,25
2017-02-17T09:26:32.902Z,35
2017-02-17T09:27:33.642Z,45
2017-02-17T09:28:33.692Z,20
2017-02-17T09:29:33.825Z,15
2017-02-17T09:30:33.034Z,10
2017-02-17T09:31:33.120Z,10
2017-02-17T09:32:33.255Z,10
2017-02-17T09:33:34.332Z,10
2017-02-17T09:34:33.396Z,10
2017-02-17T09:35:33.440Z,10
2017-02-17T09:36:34.544Z,10
2017-02-17T09:37:33.705Z,10
2017-02-17T09:38:33.484Z,10
2017-02-17T09:39:33.339Z,10
2017-02-17T09:40:33.340Z,10
2017-02-17T09:41:34.588Z,10
2017-02-17T09:42:34.120Z,10
2017-02-17T09:43:33.227Z,10
2017-02-17T09:44:33.792Z,10
2017-02-17T09:45:33.115Z,5
2017-02-17T09:46:33.767Z,5
2017-02-17T09:47:33.576Z,5
2017-02-17T09:48:34.528Z,5
2017-02-17T09:49:33.148Z,10
2017-02-17T09:50:32.774Z,5
2017-02-17T09:51:34.064Z,10
2017-02-17T09:52:34.240Z,10
2017-02-17T09:53:35.307Z,10
2017-02-17T09:54:32.896Z,10
2017-02-17T09:55:33.696Z,10
2017-02-17T09:56:33.330Z,15
2017-02-17T09:57:34.077Z,15
2017-02-17T09:58:34.740Z,15
2017-02-17T09:59:33.587Z,10
2017-02-17T10:00:33.044Z,10
2017-02-17T10:01:33.473Z,10
2017-02-17T10:02:34.029Z,15
2017-02-17T10:03:34.872Z,15
2017-02-17T10:04:34.362Z,20
2017-02-17T10:05:33.964Z,20
2017-02-17T10:06:33.988Z,15
2017-02-17T10:07:33.611Z,20
2017-02-17T10:08:34.837Z,20
2017-02-17T10:09:35.152Z,20
2017-02-17T10:10:34.320Z,20
2017-02-17T10:11:33.766Z,25
2017-02-17T10:12:34.601Z,25
2017-02-17T10:13:35.003Z,30
2017-02-17T10:14:35.630Z,30
2017-02-17T10:15:35.320Z,30
2017-02-17T10:16:34.313Z,30
2017-02-17T10:17:33.896Z,30
2017-02-17T10:18:34.329Z,25
2017-02-17T10:19:35.302Z,30
2017-02-17T10:20:35.192Z,25
2017-02-17T10:21:34.220Z,25
2017-02-17T10:22:34.018Z,25
2017-02-17T10:23:33.798Z,25
2017-02-17T10:24:35.078Z,25
2017-02-17T10:25:34.750Z,20
2017-02-17T10:26:34.295Z,20
2017-02-17T10:27:34.959Z,15
2017-02-17T10:28:34.609Z,15
2017-02-17T10:29:35.278Z,15
2017-02-17T10:30:36.043Z,10
2017-02-17T10:31:35.507Z,20
2017-02-17T10:32:35.096Z,20
2017-02-17T10:33:35.128Z,20
2017-02-17T10:34:35.417Z,20
2017-02-17T10:35:35.058Z,20
2017-02-17T10:36:35.846Z,20
2017-02-17T10:37:35.991Z,20
2017-02-17T10:38:34.503Z,20
2017-02-17T10:39:34.753Z,15
2017-02-17T10:40:34.176Z,20
2017-02-17T10:41:35.258Z,25
2017-02-17T10:42:35.208Z,25
2017-02-17T10:43:35.695Z,30
2017-02-17T10:44:35.488Z,30
2017-02-17T10:45:35.586Z,30
2017-02-17T10:46:35.832Z,30
2017-02-17T10:47:36.293Z,30
2017-02-17T10:48:36.175Z,30
2017-02-17T10:49:35.457Z,30
2017-02-17T10:50:34.411Z,30
2017-02-17T10:51:35.231Z,25
2017-02-17T10:52:35.646Z,25
2017-02-17T10:53:34.999Z,20
2017-02-17T10:54:35.147Z,20
2017-02-17T10:55:36.392Z,25
2017-02-17T10:56:36.237Z,30
2017-02-17T10:57:35.008Z,25
2017-02-17T10:58:35.820Z,25
2017-02-17T10:59:35.292Z,25
2017-02-17T11:00:36.786Z,25
2017-02-17T11:01:35.494Z,30
2017-02-17T11:02:35.455Z,30
2017-02-17T11:03:36.500Z,25
2017-02-17T11:04:35.475Z,20
2017-02-17T11:05:35.669Z,20
2017-02-17T11:06:36.370Z,20
2017-02-17T11:07:36.944Z,25
2017-02-17T11:08:36.103Z,20
2017-02-17T11:09:35.991Z,25
2017-02-17T11:10:35.344Z,25
2017-02-17T11:11:37.570Z,25
2017-02-17T11:12:37.045Z,20
2017-02-17T11:13:36.264Z,20
2017-02-17T11:14:37.229Z,25
2017-02-17T11:15:36.320Z,30
2017-02-17T11:16:36.804Z,30
2017-02-17T11:17:36.452Z,30
2017-02-17T11:18:37.747Z,30
2017-02-17T11:19:37.611Z,30
2017-02-17T11:20:37.371Z,30
2017-02-17T11:21:37.277Z,30
2017-02-17T11:22:35.287Z,30
2017-02-17T11:23:36.170Z,35
2017-02-17T11:24:36.774Z,30
2017-02-17T11:25:36.180Z,35
2017-02-17T11:26:35.096Z,30
2017-02-17T11:27:36.792Z,30
2017-02-17T11:28:36.781Z,30
2017-02-17T11:29:37.450Z,25
2017-02-17T11:30:36.330Z,30
2017-02-17T11:31:36.360Z,25
2017-02-17T11:32:36.813Z,25
2017-02-17T11:33:38.057Z,25
2017-02-17T11:34:36.572Z,25
2017-02-17T11:35:35.619Z,25
2017-02-17T11:36:36.469Z,25
2017-02-17T11:37:36.097Z,25
2017-02-17T11:38:37.023Z,25
2017-02-17T11:39:37.419Z,25
2017-02-17T11:40:36.225Z,20
2017-02-17T11:41:37.040Z,20
2017-02-17T11:42:37.281Z,25
2017-02-17T11:43:36.662Z,25
2017-02-17T11:44:36.579Z,25
2017-02-17T11:45:37.095Z,25
2017-02-17T11:46:36.764Z,30
2017-02-17T11:47:37.309Z,30
2017-02-17T11:48:36.389Z,30
2017-02-17T11:49:38.628Z,30
2017-02-17T11:50:37.500Z,30
2017-02-17T11:51:37.229Z,30
2017-02-17T11:52:37.601Z,25
2017-02-17T11:53:38.070Z,20
2017-02-17T11:54:37.407Z,15
2017-02-17T11:55:37.487Z,20
2017-02-17T11:56:38.270Z,25
2017-02-17T11:57:37.562Z,20
2017-02-17T11:58:36.975Z,20
2017-02-17T11:59:37.382Z,25
2017-02-17T12:00:38.323Z,25
2017-02-17T12:01:37.951Z,20
2017-02-17T12:02:37.464Z,20
2017-02-17T12:03:37.935Z,20
2017-02-17T12:04:36.724Z,20
2017-02-17T12:05:37.149Z,20
2017-02-17T12:06:37.491Z,20
2017-02-17T12:07:37.567Z,20
2017-02-17T12:08:37.580Z,20
2017-02-17T12:09:36.532Z,20
2017-02-17T12:10:37.974Z,20
2017-02-17T12:11:37.980Z,15
2017-02-17T12:12:37.213Z,20
2017-02-17T12:13:37.264Z,25
2017-02-17T12:14:37.959Z,25
2017-02-17T12:15:37.421Z,25
2017-02-17T12:16:37.726Z,25
2017-02-17T12:17:38.135Z,20
2017-02-17T12:18:38.967Z,25
2017-02-17T12:19:37.234Z,25
2017-02-17T12:20:38.234Z,20
2017-02-17T12:21:38.172Z,20
2017-02-17T12:22:38.123Z,25
2017-02-17T12:23:37.771Z,25
2017-02-17T12:24:37.366Z,25
2017-02-17T12:25:38.433Z,25
2017-02-17T12:26:37.962Z,25
2017-02-17T12:27:37.061Z,25
2017-02-17T12:28:37.898Z,25
2017-02-17T12:29:37.503Z,25
2017-02-17T12:30:38.196Z,25
2017-02-17T12:31:39.114Z,25
2017-02-17T12:32:38.305Z,25
2017-02-17T12:33:37.655Z,25
2017-02-17T12:34:38.060Z,25
2017-02-17T12:35:38.514Z,20
2017-02-17T12:36:38.464Z,20
2017-02-17T12:37:38.657Z,20
2017-02-17T12:38:37.767Z,20
2017-02-17T12:39:38.579Z,20
2017-02-17T12:40:38.067Z,20
2017-02-17T12:41:38.600Z,20
2017-02-17T12:42:38.085Z,20
2017-02-17T12:43:38.974Z,20
2017-02-17T12:44:37.939Z,25
2017-02-17T12:45:38.602Z,25
2017-02-17T12:46:37.593Z,20
2017-02-17T12:47:39.288Z,20
2017-02-17T12:48:38.045Z,25
2017-02-17T12:49:39.247Z,25
2017-02-17T12:50:38.942Z,25
2017-02-17T12:51:38.652Z,25
2017-02-17T12:52:39.062Z,25
2017-02-17T12:53:38.691Z,25
2017-02-17T12:54:38.295Z,25
2017-02-17T12:55:39.262Z,25
2017-02-17T12:56:39.025Z,25
2017-02-17T12:57:39.281Z,25
2017-02-17T12:58:39.106Z,25
2017-02-17T12:59:38.737Z,25
2017-02-17T13:00:39.995Z,25
2017-02-17T13:01:38.757Z,25
2017-02-17T13:02:39.291Z,30
2017-02-17T13:03:38.463Z,115
2017-02-17T13:04:38.106Z,60
2017-02-17T13:05:39.165Z,35
2017-02-17T13:06:39.964Z,60
2017-02-17T13:07:39.517Z,95
2017-02-17T13:08:38.973Z,50
2017-02-17T13:09:38.234Z,40
2017-02-17T13:10:39.362Z,25
2017-02-17T13:11:40.560Z,35
2017-02-17T13:12:38.518Z,35
2017-02-17T13:13:39.014Z,25
2017-02-17T13:14:38.761Z,20
2017-02-17T13:15:38.768Z,20
2017-02-17T13:16:39.511Z,15
2017-02-17T13:17:38.451Z,15
2017-02-17T13:18:39.655Z,10
2017-02-17T13:19:39.502Z,5
2017-02-17T13:20:40.182Z,5
2017-02-17T13:21:39.585Z,10
2017-02-17T13:22:39.778Z,5
2017-02-17T13:23:39.231Z,5
2017-02-17T13:24:40.648Z,10
2017-02-17T13:25:38.645Z,10
2017-02-17T13:26:39.391Z,20
2017-02-17T13:27:39.946Z,25
2017-02-17T13:28:39.810Z,25
2017-02-17T13:29:39.981Z,25
2017-02-17T13:30:39.980Z,25
2017-02-17T13:31:40.274Z,25
2017-02-17T13:32:40.151Z,25
2017-02-17T13:33:39.290Z,25
2017-02-17T13:34:39.716Z,30
2017-02-17T13:35:39.337Z,30
2017-02-17T13:36:41.342Z,30
2017-02-17T13:37:39.398Z,30
2017-02-17T13:38:39.967Z,30
2017-02-17T13:39:39.480Z,40
2017-02-17T13:40:40.409Z,40
2017-02-17T13:41:40.160Z,30
2017-02-17T13:42:40.348Z,30
2017-02-17T13:43:39.568Z,30
2017-02-17T13:44:40.274Z,35
2017-02-17T13:45:41.467Z,30
2017-02-17T13:46:39.906Z,25
2017-02-17T13:47:39.528Z,25
2017-02-17T13:48:40.647Z,25
2017-02-17T13:49:39.846Z,25
2017-02-17T13:50:40.773Z,15
2017-02-17T13:51:40.978Z,15
2017-02-17T13:52:40.226Z,10
2017-02-17T13:53:40.239Z,10
2017-02-17T13:54:40.245Z,20
2017-02-17T13:55:40.895Z,20
2017-02-17T13:56:41.467Z,25
2017-02-17T13:57:40.329Z,25
2017-02-17T13:58:39.957Z,25
2017-02-17T13:59:39.998Z,25
2017-02-17T14:00:41.400Z,25
2017-02-17T14:01:41.576Z,25
2017-02-17T14:02:41.442Z,25
2017-02-17T14:03:40.522Z,25
2017-02-17T14:04:40.931Z,25
2017-02-17T14:05:40.222Z,25
2017-02-17T14:06:41.883Z,25
2017-02-17T14:07:40.372Z,25
2017-02-17T14:08:40.652Z,25
2017-02-17T14:09:41.243Z,25
2017-02-17T14:10:41.146Z,25
2017-02-17T14:11:40.604Z,25
2017-02-17T14:12:41.181Z,20
2017-02-17T14:13:41.129Z,25
2017-02-17T14:14:41.499Z,25
2017-02-17T14:15:41.205Z,25
2017-02-17T14:16:40.334Z,20
2017-02-17T14:17:41.488Z,20
2017-02-17T14:18:40.543Z,20
2017-02-17T14:19:41.067Z,20
2017-02-17T14:20:41.127Z,15
2017-02-17T14:21:41.659Z,10
2017-02-17T14:22:40.927Z,10
2017-02-17T14:23:41.340Z,10
2017-02-17T14:24:42.163Z,10
2017-02-17T14:25:42.100Z,10
2017-02-17T14:26:43.729Z,5
2017-02-17T14:27:41.592Z,5
2017-02-17T14:28:41.660Z,5
2017-02-17T14:29:42.606Z,0
2017-02-17T14:30:41.491Z,0
2017-02-17T14:31:41.753Z,0
2017-02-17T14:32:40.972Z,0
2017-02-17T14:33:40.803Z,5
2017-02-17T14:34:41.420Z,5